Time;durP1;ratioP1;P1;durP2;ratioP2;P2;SDS_P1;SDS_P2;PMS_P1;PMS_P2;Temp;Humidity;BMP_temperature;BMP_pressure;BME280_temperature;BME280_humidity;BME280_pressure;Samples;Min_cycle;Max_cycle;Signal;HPM_P1;HPM_P2
2023/01/16 00:01:52;;;;;;;3.60;1.30;;;;;;;;;;5055540;28;20212;-61
2023/01/16 00:04:21;;;;;;;1.73;1.00;;;;;;;;;;5055297;28;20207;-61
2023/01/16 00:06:49;;;;;;;1.98;1.38;;;;;;;;;;5055239;28;20214;-61
2023/01/16 00:09:18;;;;;;;2.67;1.65;;;;;;;;;;5051662;28;20207;-61
2023/01/16 00:11:47;;;;;;;5.47;1.63;;;;;;;;;;5045794;28;20690;-60
2023/01/16 00:14:15;;;;;;;9.63;1.25;;;;;;;;;;5035984;28;20209;-61
2023/01/16 00:16:43;;;;;;;2.67;1.00;;;;;;;;;;5053490;28;20732;-61
2023/01/16 00:19:11;;;;;;;1.92;1.40;;;;;;;;;;5054372;28;20569;-61
2023/01/16 00:21:40;;;;;;;3.80;1.40;;;;;;;;;;5041805;28;20668;-61
2023/01/16 00:24:08;;;;;;;1.30;1.20;;;;;;;;;;5035577;28;20581;-61
2023/01/16 00:26:37;;;;;;;1.40;1.25;;;;;;;;;;5037470;28;20560;-61
2023/01/16 00:29:06;;;;;;;1.45;1.08;;;;;;;;;;5047122;28;20205;-61
2023/01/16 00:31:34;;;;;;;3.45;1.13;;;;;;;;;;5036268;28;20227;-61
2023/01/16 00:34:02;;;;;;;5.30;1.65;;;;;;;;;;5048872;28;20204;-61
2023/01/16 00:36:30;;;;;;;1.63;1.05;;;;;;;;;;5056143;28;20211;-61
2023/01/16 00:38:58;;;;;;;2.10;1.15;;;;;;;;;;5055570;28;20208;-59
2023/01/16 00:41:26;;;;;;;7.70;1.60;;;;;;;;;;5055390;28;20703;-61
2023/01/16 00:43:58;;;;;;;3.20;1.25;;;;;;;;;;5055491;28;20218;-62
2023/01/16 00:46:29;;;;;;;7.07;1.73;;;;;;;;;;5040408;28;20193;-61
2023/01/16 00:48:57;;;;;;;5.25;1.48;;;;;;;;;;5035807;28;20223;-60
2023/01/16 00:51:26;;;;;;;1.70;1.33;;;;;;;;;;5035189;28;20212;-61
2023/01/16 00:53:54;;;;;;;4.63;1.70;;;;;;;;;;5035722;28;20216;-61
2023/01/16 00:56:22;;;;;;;3.08;1.35;;;;;;;;;;5032826;28;20213;-61
2023/01/16 00:58:50;;;;;;;3.20;1.15;;;;;;;;;;5035242;28;20212;-60
2023/01/16 01:01:19;;;;;;;2.88;1.42;;;;;;;;;;5034372;28;20278;-60
2023/01/16 01:03:48;;;;;;;1.65;1.20;;;;;;;;;;5034341;28;20205;-61
2023/01/16 01:06:16;;;;;;;2.08;1.10;;;;;;;;;;5034369;28;20208;-61
2023/01/16 01:08:44;;;;;;;4.82;1.30;;;;;;;;;;5035180;28;20232;-61
2023/01/16 01:11:13;;;;;;;2.45;1.60;;;;;;;;;;5035098;28;20567;-61
2023/01/16 01:13:42;;;;;;;1.27;1.17;;;;;;;;;;5035521;28;20205;-61
2023/01/16 01:16:10;;;;;;;4.03;1.45;;;;;;;;;;5040881;28;20240;-61
2023/01/16 01:18:40;;;;;;;1.42;1.23;;;;;;;;;;5054849;28;20660;-61
2023/01/16 01:21:08;;;;;;;3.47;1.40;;;;;;;;;;5054664;28;20642;-61
2023/01/16 01:23:37;;;;;;;2.65;1.33;;;;;;;;;;5054743;28;20233;-61
2023/01/16 01:26:08;;;;;;;6.57;1.30;;;;;;;;;;5054949;28;20664;-61
2023/01/16 01:28:36;;;;;;;2.45;1.65;;;;;;;;;;5050344;28;20656;-59
2023/01/16 01:31:05;;;;;;;5.00;1.88;;;;;;;;;;5052245;28;20231;-59
2023/01/16 01:33:33;;;;;;;5.47;1.52;;;;;;;;;;5043832;28;20207;-58
2023/01/16 01:36:03;;;;;;;3.50;1.40;;;;;;;;;;5036341;28;20563;-62
2023/01/16 01:38:31;;;;;;;4.97;1.70;;;;;;;;;;5049534;28;20261;-60
2023/01/16 01:40:59;;;;;;;2.40;1.90;;;;;;;;;;5035572;28;20217;-60
2023/01/16 01:43:40;;;;;;;3.83;1.33;;;;;;;;;;5038596;28;20200;-60
2023/01/16 01:46:09;;;;;;;1.23;1.05;;;;;;;;;;5040028;28;20193;-60
2023/01/16 01:48:41;;;;;;;2.63;1.27;;;;;;;;;;5035424;28;20242;-60
2023/01/16 01:51:12;;;;;;;3.97;1.33;;;;;;;;;;5055140;28;20189;-60
2023/01/16 01:53:43;;;;;;;3.63;1.35;;;;;;;;;;5054066;28;20193;-60
2023/01/16 01:56:14;;;;;;;3.13;1.17;;;;;;;;;;5054568;28;20192;-60
2023/01/16 01:58:43;;;;;;;4.35;1.40;;;;;;;;;;5053681;28;20194;-61
2023/01/16 02:01:17;;;;;;;1.95;1.50;;;;;;;;;;5049448;28;20282;-61
2023/01/16 02:03:49;;;;;;;2.70;1.48;;;;;;;;;;5033673;28;20209;-62
2023/01/16 02:06:20;;;;;;;4.80;2.10;;;;;;;;;;5034817;28;20185;-61
2023/01/16 02:08:50;;;;;;;2.17;0.98;;;;;;;;;;5034192;28;20200;-62
2023/01/16 02:11:26;;;;;;;2.95;1.38;;;;;;;;;;5035316;28;20197;-61
2023/01/16 02:13:55;;;;;;;1.20;1.10;;;;;;;;;;5034665;28;20565;-62
2023/01/16 02:19:17;;;;;;;1.40;1.17;;;;;;;;;;5035156;28;20193;-60
2023/01/16 02:22:10;;;;;;;3.33;1.00;;;;;;;;;;5034831;28;20209;-61
2023/01/16 02:24:48;;;;;;;2.83;1.35;;;;;;;;;;5034443;28;20249;-62
2023/01/16 02:27:29;;;;;;;1.20;0.90;;;;;;;;;;5035106;28;20190;-61
2023/01/16 02:30:10;;;;;;;3.58;1.30;;;;;;;;;;5034573;28;20272;-63
2023/01/16 02:32:47;;;;;;;9.45;1.90;;;;;;;;;;5033894;28;20231;-61
2023/01/16 02:35:30;;;;;;;1.20;1.10;;;;;;;;;;5034865;28;20268;-61
2023/01/16 02:38:03;;;;;;;3.50;1.40;;;;;;;;;;5027576;28;20661;-61
2023/01/16 02:40:37;;;;;;;8.05;1.42;;;;;;;;;;5034706;28;20193;-62
2023/01/16 02:43:10;;;;;;;3.80;1.55;;;;;;;;;;5034748;28;20747;-61
2023/01/16 02:45:43;;;;;;;4.47;1.30;;;;;;;;;;5034492;28;20707;-61
2023/01/16 02:48:16;;;;;;;1.67;1.20;;;;;;;;;;5035243;28;20200;-60
2023/01/16 02:50:48;;;;;;;2.50;1.30;;;;;;;;;;5043132;28;20315;-60
2023/01/16 02:53:19;;;;;;;5.00;1.15;;;;;;;;;;5034148;28;20190;-61
2023/01/16 02:55:48;;;;;;;2.25;1.40;;;;;;;;;;5034523;28;20193;-61
2023/01/16 02:58:16;;;;;;;5.03;1.30;;;;;;;;;;5034215;28;20201;-62
2023/01/16 03:00:50;;;;;;;3.15;1.38;;;;;;;;;;5034202;28;20205;-62
2023/01/16 03:03:36;;;;;;;3.85;1.30;;;;;;;;;;5049503;28;20210;-62
2023/01/16 03:06:10;;;;;;;10.65;1.55;;;;;;;;;;5046142;28;20577;-62
2023/01/16 03:08:44;;;;;;;2.05;1.20;;;;;;;;;;5053855;28;20193;-61
2023/01/16 03:11:21;;;;;;;3.38;1.75;;;;;;;;;;5041388;28;20247;-61
2023/01/16 03:13:54;;;;;;;2.65;1.10;;;;;;;;;;5055249;28;20630;-62
2023/01/16 03:16:27;;;;;;;6.88;1.50;;;;;;;;;;5051463;28;20833;-62
2023/01/16 03:18:58;;;;;;;1.75;1.35;;;;;;;;;;5035916;28;20190;-62
2023/01/16 03:21:32;;;;;;;1.85;1.20;;;;;;;;;;5033436;28;20214;-62
2023/01/16 03:24:01;;;;;;;2.50;1.75;;;;;;;;;;5034151;28;20229;-61
2023/01/16 03:26:31;;;;;;;2.58;1.10;;;;;;;;;;5038308;28;20204;-62
2023/01/16 03:29:04;;;;;;;2.00;1.05;;;;;;;;;;5034034;28;20711;-62
2023/01/16 03:31:35;;;;;;;6.78;1.98;;;;;;;;;;5033810;28;20193;-60
2023/01/16 03:34:08;;;;;;;2.55;1.63;;;;;;;;;;5034198;28;20219;-62
2023/01/16 03:36:40;;;;;;;3.90;1.08;;;;;;;;;;5033806;28;20231;-62
2023/01/16 03:39:10;;;;;;;2.58;1.67;;;;;;;;;;5048953;28;20222;-62
2023/01/16 03:41:40;;;;;;;8.63;6.70;;;;;;;;;;5033486;28;20596;-62
2023/01/16 03:44:10;;;;;;;2.85;1.60;;;;;;;;;;5046091;28;20211;-63
2023/01/16 03:46:41;;;;;;;20.27;15.30;;;;;;;;;;5033855;28;20211;-62
2023/01/16 03:49:11;;;;;;;6.57;2.88;;;;;;;;;;5042671;28;20539;-61
2023/01/16 03:51:43;;;;;;;6.45;1.95;;;;;;;;;;5054436;28;20527;-62
2023/01/16 03:54:15;;;;;;;3.00;1.33;;;;;;;;;;5053605;28;20207;-62
2023/01/16 03:56:47;;;;;;;3.53;1.33;;;;;;;;;;5053670;28;20200;-62
2023/01/16 03:59:16;;;;;;;1.30;1.00;;;;;;;;;;5053103;28;20192;-62
2023/01/16 04:01:47;;;;;;;3.47;1.20;;;;;;;;;;5052621;28;20258;-62
2023/01/16 04:04:17;;;;;;;1.70;1.00;;;;;;;;;;5050796;28;20204;-62
2023/01/16 04:06:49;;;;;;;1.80;1.00;;;;;;;;;;5053179;28;20200;-62
2023/01/16 04:09:22;;;;;;;2.92;1.63;;;;;;;;;;5052800;28;20200;-61
2023/01/16 04:11:51;;;;;;;1.75;1.35;;;;;;;;;;5052424;28;20200;-62
2023/01/16 04:14:20;;;;;;;6.45;1.35;;;;;;;;;;5052741;28;20226;-62
2023/01/16 04:17:07;;;;;;;1.30;1.20;;;;;;;;;;5052579;28;20580;-62
2023/01/16 04:19:36;;;;;;;3.55;1.98;;;;;;;;;;5052362;28;20204;-62
2023/01/16 04:22:08;;;;;;;7.35;1.88;;;;;;;;;;5052689;28;20234;-62
2023/01/16 04:24:37;;;;;;;1.52;1.42;;;;;;;;;;5052429;28;20203;-62
2023/01/16 04:27:05;;;;;;;1.30;1.20;;;;;;;;;;5052475;28;20219;-62
2023/01/16 04:29:33;;;;;;;3.92;1.73;;;;;;;;;;5052494;28;20207;-61
2023/01/16 04:32:01;;;;;;;2.10;1.00;;;;;;;;;;5053980;28;20199;-61
2023/01/16 04:34:29;;;;;;;3.60;1.45;;;;;;;;;;5056788;28;20227;-61
2023/01/16 04:36:58;;;;;;;2.05;1.65;;;;;;;;;;5056725;28;20238;-62
2023/01/16 04:39:27;;;;;;;2.33;1.95;;;;;;;;;;5050881;28;20208;-61
2023/01/16 04:41:55;;;;;;;3.28;1.88;;;;;;;;;;5036388;28;20225;-62
2023/01/16 04:44:25;;;;;;;4.38;1.10;;;;;;;;;;5050313;28;20204;-62
2023/01/16 04:46:53;;;;;;;1.50;1.30;;;;;;;;;;5076369;28;20204;-59
2023/01/16 04:49:22;;;;;;;2.35;1.35;;;;;;;;;;5074261;28;20241;-61
2023/01/16 04:51:50;;;;;;;4.30;1.63;;;;;;;;;;5075794;28;20207;-62
2023/01/16 04:54:19;;;;;;;2.60;1.23;;;;;;;;;;5075827;28;20674;-62
2023/01/16 04:56:48;;;;;;;3.53;1.40;;;;;;;;;;5056918;28;20528;-62
2023/01/16 04:59:17;;;;;;;7.32;2.08;;;;;;;;;;5054176;28;20246;-62
2023/01/16 05:01:45;;;;;;;2.85;1.23;;;;;;;;;;5054366;28;20224;-62
2023/01/16 05:04:14;;;;;;;1.25;1.08;;;;;;;;;;5055052;28;20210;-61
2023/01/16 05:06:43;;;;;;;3.83;1.20;;;;;;;;;;5054866;28;20231;-62
2023/01/16 05:09:11;;;;;;;3.75;1.30;;;;;;;;;;5055240;28;20675;-62
2023/01/16 05:11:39;;;;;;;1.00;0.90;;;;;;;;;;5055642;28;20204;-62
2023/01/16 05:14:10;;;;;;;4.03;1.55;;;;;;;;;;5055741;28;20241;-62
2023/01/16 05:16:41;;;;;;;1.45;0.90;;;;;;;;;;5054948;28;20232;-62
2023/01/16 05:19:09;;;;;;;3.80;1.00;;;;;;;;;;5055406;28;20211;-60
2023/01/16 05:21:38;;;;;;;7.05;1.67;;;;;;;;;;5056226;28;20264;-61
2023/01/16 05:24:06;;;;;;;2.58;1.25;;;;;;;;;;5054634;28;20624;-60
2023/01/16 05:26:35;;;;;;;4.53;1.05;;;;;;;;;;5054705;28;20209;-60
2023/01/16 05:29:03;;;;;;;1.75;1.42;;;;;;;;;;5053576;28;20242;-60
2023/01/16 05:31:32;;;;;;;7.30;1.15;;;;;;;;;;5054168;28;20213;-62
2023/01/16 05:34:00;;;;;;;2.88;1.20;;;;;;;;;;5039243;28;20554;-61
2023/01/16 05:36:29;;;;;;;4.40;1.40;;;;;;;;;;5033918;28;20221;-61
2023/01/16 05:38:57;;;;;;;4.00;1.48;;;;;;;;;;5053192;28;20552;-61
2023/01/16 05:41:25;;;;;;;1.88;0.90;;;;;;;;;;5054386;28;20219;-61
2023/01/16 05:43:53;;;;;;;6.57;2.17;;;;;;;;;;5053891;28;20221;-61
2023/01/16 05:46:21;;;;;;;1.92;1.27;;;;;;;;;;5054386;28;20200;-61
2023/01/16 05:48:51;;;;;;;4.72;1.00;;;;;;;;;;5054636;28;20615;-61
2023/01/16 05:51:19;;;;;;;1.92;1.10;;;;;;;;;;5055433;28;20205;-61
2023/01/16 05:53:50;;;;;;;2.33;1.38;;;;;;;;;;5053326;28;20189;-61
2023/01/16 05:56:21;;;;;;;3.10;1.23;;;;;;;;;;5046177;28;20639;-61
2023/01/16 05:58:49;;;;;;;2.10;1.40;;;;;;;;;;5049141;28;20202;-61
2023/01/16 06:01:17;;;;;;;1.10;1.00;;;;;;;;;;5044688;28;20227;-63
2023/01/16 06:03:45;;;;;;;4.65;1.70;;;;;;;;;;5043516;28;20240;-61
2023/01/16 06:06:15;;;;;;;3.95;1.92;;;;;;;;;;5045599;28;20215;-60
2023/01/16 06:08:43;;;;;;;3.88;2.85;;;;;;;;;;5036697;28;20208;-61
2023/01/16 06:11:11;;;;;;;7.00;2.55;;;;;;;;;;5054464;28;20547;-61
2023/01/16 06:13:40;;;;;;;5.22;2.30;;;;;;;;;;5052623;28;20205;-61
2023/01/16 06:16:08;;;;;;;3.63;2.15;;;;;;;;;;5048129;28;20236;-61
2023/01/16 06:18:36;;;;;;;7.32;2.15;;;;;;;;;;5046066;28;20204;-62
2023/01/16 06:21:05;;;;;;;5.20;1.75;;;;;;;;;;5053685;28;20642;-59
2023/01/16 06:23:34;;;;;;;2.15;1.95;;;;;;;;;;5038468;28;20225;-61
2023/01/16 06:26:05;;;;;;;2.10;1.67;;;;;;;;;;5033898;28;20266;-61
2023/01/16 06:28:33;;;;;;;12.35;2.22;;;;;;;;;;5044396;28;20382;-62
2023/01/16 06:31:01;;;;;;;6.50;2.75;;;;;;;;;;5038644;28;20204;-62
2023/01/16 06:33:29;;;;;;;4.93;3.85;;;;;;;;;;5046161;28;20197;-60
2023/01/16 06:35:58;;;;;;;8.90;5.35;;;;;;;;;;5033433;28;20208;-61
2023/01/16 06:38:26;;;;;;;8.82;5.05;;;;;;;;;;5045082;28;20201;-61
2023/01/16 06:40:56;;;;;;;10.10;5.75;;;;;;;;;;5052956;28;20201;-66
2023/01/16 06:43:24;;;;;;;9.25;6.10;;;;;;;;;;5043865;28;20769;-65
2023/01/16 06:45:55;;;;;;;6.57;5.57;;;;;;;;;;5051590;28;20189;-64
2023/01/16 06:48:23;;;;;;;7.60;3.80;;;;;;;;;;5049727;28;20200;-66
2023/01/16 06:50:51;;;;;;;8.13;3.92;;;;;;;;;;5045992;28;20207;-65
2023/01/16 06:53:20;;;;;;;15.63;7.97;;;;;;;;;;5034146;28;20201;-65
2023/01/16 06:55:48;;;;;;;9.57;5.63;;;;;;;;;;5032497;28;20202;-65
2023/01/16 06:58:17;;;;;;;9.50;5.47;;;;;;;;;;5045479;28;20218;-64
2023/01/16 07:00:45;;;;;;;13.80;8.20;;;;;;;;;;5051964;28;20208;-64
2023/01/16 07:03:14;;;;;;;11.88;5.50;;;;;;;;;;5051353;28;20224;-65
2023/01/16 07:05:42;;;;;;;8.00;4.85;;;;;;;;;;5052036;28;20213;-65
2023/01/16 07:08:10;;;;;;;6.95;3.00;;;;;;;;;;5041136;28;20212;-65
2023/01/16 07:10:38;;;;;;;8.10;5.20;;;;;;;;;;5052599;28;20603;-64
2023/01/16 07:13:07;;;;;;;10.75;6.18;;;;;;;;;;5051722;28;20201;-66
2023/01/16 07:24:00;;;;;;;10.88;6.07;;;;;;;;;;5052271;28;20224;-65
2023/01/16 07:26:28;;;;;;;5.90;3.17;;;;;;;;;;5049456;28;20663;-66
2023/01/16 07:28:57;;;;;;;6.38;2.70;;;;;;;;;;5033453;28;20748;-64
2023/01/16 07:31:27;;;;;;;6.28;2.15;;;;;;;;;;5044429;28;20568;-65
2023/01/16 07:33:55;;;;;;;7.60;3.30;;;;;;;;;;5052480;28;20212;-65
2023/01/16 07:36:23;;;;;;;3.50;2.50;;;;;;;;;;5053429;28;20234;-64
2023/01/16 07:38:51;;;;;;;5.47;2.05;;;;;;;;;;5052194;28;20204;-65
2023/01/16 07:41:20;;;;;;;2.83;1.42;;;;;;;;;;5052425;28;20204;-64
2023/01/16 07:43:48;;;;;;;1.70;1.58;;;;;;;;;;5052228;28;20250;-64
2023/01/16 07:46:16;;;;;;;3.35;1.80;;;;;;;;;;5052769;28;20346;-65
2023/01/16 07:48:45;;;;;;;2.85;1.52;;;;;;;;;;5050449;28;20204;-64
2023/01/16 07:51:13;;;;;;;3.45;1.80;;;;;;;;;;5050663;28;20207;-62
2023/01/16 07:53:42;;;;;;;10.68;2.97;;;;;;;;;;5052015;28;20196;-63
2023/01/16 07:56:10;;;;;;;5.80;2.28;;;;;;;;;;5048921;28;20211;-64
2023/01/16 07:58:41;;;;;;;2.13;1.42;;;;;;;;;;5052341;28;20204;-63
2023/01/16 08:01:09;;;;;;;4.30;2.75;;;;;;;;;;5051847;28;20548;-65
2023/01/16 08:03:37;;;;;;;2.92;1.90;;;;;;;;;;5051000;28;20228;-64
2023/01/16 08:06:07;;;;;;;2.47;1.95;;;;;;;;;;5051930;28;20204;-64
2023/01/16 08:08:35;;;;;;;7.13;2.58;;;;;;;;;;5056574;28;20540;-64
2023/01/16 08:11:35;;;;;;;4.20;2.38;;;;;;;;;;5055798;28;20204;-65
2023/01/16 08:13:53;;;;;;;10.07;4.03;;;;;;;;;;5056144;28;20204;-64
2023/01/16 08:16:21;;;;;;;4.93;2.83;;;;;;;;;;5055474;28;20236;-63
2023/01/16 08:18:49;;;;;;;3.55;3.25;;;;;;;;;;5056556;28;20204;-65
2023/01/16 08:21:19;;;;;;;9.82;2.72;;;;;;;;;;5055761;28;20689;-65
2023/01/16 08:23:47;;;;;;;6.35;1.73;;;;;;;;;;5055703;28;20232;-64
2023/01/16 08:26:16;;;;;;;5.18;1.38;;;;;;;;;;5055078;28;20668;-65
2023/01/16 08:28:44;;;;;;;2.85;2.28;;;;;;;;;;5055769;28;20667;-65
2023/01/16 08:31:13;;;;;;;4.40;1.85;;;;;;;;;;5055564;28;20219;-65
2023/01/16 08:33:42;;;;;;;6.88;2.13;;;;;;;;;;5056102;28;20223;-64
2023/01/16 08:36:11;;;;;;;3.80;2.42;;;;;;;;;;5055080;28;20211;-65
2023/01/16 08:38:40;;;;;;;7.35;2.08;;;;;;;;;;5055973;28;20558;-65
2023/01/16 08:51:21;;;;;;;6.82;2.33;;;;;;;;;;5055567;28;20207;-65
2023/01/16 08:52:16;;;;;;;3.55;1.30;;;;;;;;;;5055045;28;20615;-66
2023/01/16 08:54:46;;;;;;;3.65;1.15;;;;;;;;;;5055406;28;20580;-64
2023/01/16 08:57:14;;;;;;;2.45;1.38;;;;;;;;;;5054967;28;20204;-65
2023/01/16 08:59:42;;;;;;;3.25;1.50;;;;;;;;;;5055215;28;20212;-65
2023/01/16 09:02:11;;;;;;;2.90;1.33;;;;;;;;;;5050893;28;20208;-65
2023/01/16 09:04:40;;;;;;;1.70;1.60;;;;;;;;;;5053781;28;20239;-65
2023/01/16 09:07:09;;;;;;;1.20;1.10;;;;;;;;;;5054763;28;20211;-64
2023/01/16 09:09:40;;;;;;;1.92;1.80;;;;;;;;;;5051879;28;20207;-63
2023/01/16 09:14:56;;;;;;;2.10;1.60;;;;;;;;;;5046497;28;20207;-64
2023/01/16 09:17:25;;;;;;;1.45;1.25;;;;;;;;;;5053838;28;20199;-65
2023/01/16 09:19:54;;;;;;;4.82;1.35;;;;;;;;;;5054638;28;20216;-65
2023/01/16 09:22:22;;;;;;;2.30;1.30;;;;;;;;;;5053984;28;20227;-66
2023/01/16 09:24:50;;;;;;;1.75;1.38;;;;;;;;;;5054413;28;20225;-65
2023/01/16 09:27:20;;;;;;;1.63;1.10;;;;;;;;;;5053528;28;20574;-65
2023/01/16 09:29:48;;;;;;;1.25;1.05;;;;;;;;;;5052095;28;20204;-65
2023/01/16 09:32:18;;;;;;;1.20;1.10;;;;;;;;;;5055020;28;20205;-65
2023/01/16 09:34:46;;;;;;;1.30;1.20;;;;;;;;;;5054904;28;20266;-66
2023/01/16 09:37:14;;;;;;;1.35;1.25;;;;;;;;;;5054947;28;20205;-66
2023/01/16 09:39:42;;;;;;;1.88;1.50;;;;;;;;;;5054665;28;20208;-65
2023/01/16 09:45:09;;;;;;;1.83;1.73;;;;;;;;;;5054092;28;20284;-64
2023/01/16 09:47:38;;;;;;;2.13;1.10;;;;;;;;;;5055081;28;20192;-64
2023/01/16 09:50:08;;;;;;;1.20;1.10;;;;;;;;;;5054136;28;20208;-65
2023/01/16 10:01:01;;;;;;;5.85;1.30;;;;;;;;;;5053837;28;20180;-66
2023/01/16 10:03:29;;;;;;;1.20;1.10;;;;;;;;;;5053574;28;20215;-65
2023/01/16 10:06:01;;;;;;;0.88;0.88;;;;;;;;;;5053663;28;20228;-65
2023/01/16 10:08:32;;;;;;;1.10;1.10;;;;;;;;;;5054235;28;20188;-65
2023/01/16 10:11:04;;;;;;;0.98;0.98;;;;;;;;;;5053927;28;20188;-65
2023/01/16 10:13:44;;;;;;;1.10;1.02;;;;;;;;;;5054381;28;20665;-65
2023/01/16 10:16:17;;;;;;;1.30;1.20;;;;;;;;;;5053826;28;20277;-65
2023/01/16 10:18:51;;;;;;;1.50;1.40;;;;;;;;;;5054290;28;20192;-65
2023/01/16 10:21:26;;;;;;;1.27;1.17;;;;;;;;;;5053637;28;20189;-64
2023/01/16 10:23:55;;;;;;;1.30;1.20;;;;;;;;;;5052339;28;20223;-64
2023/01/16 10:26:28;;;;;;;1.45;1.08;;;;;;;;;;5053789;28;20234;-64
2023/01/16 10:29:01;;;;;;;1.10;1.10;;;;;;;;;;5053637;28;20192;-64
2023/01/16 10:31:34;;;;;;;2.38;1.38;;;;;;;;;;5053966;28;20199;-64
2023/01/16 10:34:05;;;;;;;1.60;1.48;;;;;;;;;;5054334;28;20195;-65
2023/01/16 10:36:37;;;;;;;1.27;1.17;;;;;;;;;;5051643;28;20243;-63
2023/01/16 10:39:05;;;;;;;1.00;1.00;;;;;;;;;;5054033;28;20208;-64
2023/01/16 10:50:07;;;;;;;0.90;0.90;;;;;;;;;;5053406;28;20188;-65
2023/01/16 10:52:36;;;;;;;0.90;0.90;;;;;;;;;;5051799;28;20208;-63
2023/01/16 10:55:05;;;;;;;1.50;1.40;;;;;;;;;;5051016;28;20209;-64
2023/01/16 10:57:33;;;;;;;1.70;1.60;;;;;;;;;;5052881;28;20205;-64
2023/01/16 11:00:04;;;;;;;1.88;0.90;;;;;;;;;;5053003;28;20208;-64
2023/01/16 11:02:36;;;;;;;1.33;1.25;;;;;;;;;;5051934;28;20596;-64
2023/01/16 11:05:22;;;;;;;1.17;1.00;;;;;;;;;;5052316;28;20213;-64
2023/01/16 11:07:53;;;;;;;1.05;1.05;;;;;;;;;;5051343;28;20261;-64
2023/01/16 11:10:22;;;;;;;1.23;1.13;;;;;;;;;;5053389;28;20188;-64
2023/01/16 11:18:30;;;;;;;0.90;0.90;;;;;;;;;;5052487;28;20197;-65
2023/01/16 11:21:00;;;;;;;2.30;0.98;;;;;;;;;;5052991;28;20199;-64
2023/01/16 11:23:33;;;;;;;2.63;0.90;;;;;;;;;;5052414;28;20259;-64
2023/01/16 11:26:02;;;;;;;1.83;1.73;;;;;;;;;;5053067;28;20560;-63
2023/01/16 11:28:32;;;;;;;2.22;1.95;;;;;;;;;;5049591;28;20607;-64
2023/01/16 11:31:02;;;;;;;1.20;1.10;;;;;;;;;;5051219;28;20207;-64
2023/01/16 11:33:36;;;;;;;1.00;1.00;;;;;;;;;;5052438;28;20559;-69
2023/01/16 11:36:05;;;;;;;1.00;0.90;;;;;;;;;;5052872;28;20187;-65
2023/01/16 11:38:37;;;;;;;1.00;0.98;;;;;;;;;;5052080;28;20211;-65
2023/01/16 11:41:08;;;;;;;0.90;0.90;;;;;;;;;;5052696;28;20189;-64
2023/01/16 11:46:34;;;;;;;1.05;0.90;;;;;;;;;;5037812;28;20567;-65
2023/01/16 11:49:05;;;;;;;1.08;0.98;;;;;;;;;;5050305;28;20257;-64
2023/01/16 11:51:34;;;;;;;0.88;0.88;;;;;;;;;;5041777;28;20196;-64
2023/01/16 11:54:04;;;;;;;3.60;0.90;;;;;;;;;;5051805;28;20651;-64
2023/01/16 11:56:39;;;;;;;1.10;1.10;;;;;;;;;;5045363;28;20189;-64
2023/01/16 11:59:12;;;;;;;1.45;1.02;;;;;;;;;;5036849;28;20610;-66
2023/01/16 12:04:33;;;;;;;1.30;1.20;;;;;;;;;;5039342;28;20189;-64
2023/01/16 12:07:07;;;;;;;1.08;0.70;;;;;;;;;;5044021;28;20192;-63
2023/01/16 12:09:45;;;;;;;2.35;2.03;;;;;;;;;;5037319;28;20189;-63
2023/01/16 12:15:06;;;;;;;1.20;1.10;;;;;;;;;;5048732;28;20242;-64
2023/01/16 12:17:43;;;;;;;0.95;0.95;;;;;;;;;;5047605;28;20644;-63
2023/01/16 12:20:20;;;;;;;0.95;0.95;;;;;;;;;;5039616;28;20599;-64
2023/01/16 12:22:54;;;;;;;0.80;0.80;;;;;;;;;;5043463;28;20221;-64
2023/01/16 12:25:29;;;;;;;1.80;1.70;;;;;;;;;;5042128;28;20208;-62
2023/01/16 12:28:03;;;;;;;1.15;1.15;;;;;;;;;;5040273;28;20193;-62
2023/01/16 12:30:36;;;;;;;0.80;0.80;;;;;;;;;;5042041;28;20233;-62
2023/01/16 12:33:12;;;;;;;0.90;0.90;;;;;;;;;;5044140;28;20196;-63
2023/01/16 12:35:47;;;;;;;1.00;1.00;;;;;;;;;;5040862;28;20203;-64
2023/01/16 12:38:17;;;;;;;1.33;1.25;;;;;;;;;;5040142;28;21038;-64
2023/01/16 12:43:17;;;;;;;1.98;0.90;;;;;;;;;;5044232;28;20565;-62
2023/01/16 12:43:47;;;;;;;1.00;1.00;;;;;;;;;;5040111;28;20195;-63
2023/01/16 12:46:19;;;;;;;1.02;0.85;;;;;;;;;;5037527;28;20209;-64
2023/01/16 12:48:52;;;;;;;1.08;1.08;;;;;;;;;;5039102;28;20211;-64
2023/01/16 12:51:38;;;;;;;0.80;0.80;;;;;;;;;;5044375;28;20196;-64
2023/01/16 12:54:16;;;;;;;1.23;1.13;;;;;;;;;;5039789;28;20200;-63
2023/01/16 12:56:48;;;;;;;2.42;0.95;;;;;;;;;;5052032;28;20207;-64
2023/01/16 12:59:19;;;;;;;0.80;0.80;;;;;;;;;;5051850;28;20209;-64
2023/01/16 13:01:48;;;;;;;0.80;0.80;;;;;;;;;;5050754;28;20211;-64
2023/01/16 13:04:20;;;;;;;2.65;1.50;;;;;;;;;;5054162;28;20205;-64
2023/01/16 13:06:49;;;;;;;1.73;1.20;;;;;;;;;;5041045;28;20520;-62
2023/01/16 13:09:23;;;;;;;0.90;0.90;;;;;;;;;;5053601;28;20572;-65
2023/01/16 13:14:46;;;;;;;1.05;1.05;;;;;;;;;;5053075;28;20647;-64
2023/01/16 13:17:17;;;;;;;1.10;1.10;;;;;;;;;;5053144;28;20966;-64
2023/01/16 13:19:46;;;;;;;1.10;1.00;;;;;;;;;;5053271;28;20211;-64
2023/01/16 13:22:22;;;;;;;1.10;1.10;;;;;;;;;;5042127;28;20236;-65
2023/01/16 13:24:55;;;;;;;1.30;1.20;;;;;;;;;;5053574;28;20203;-62
2023/01/16 13:27:26;;;;;;;1.80;1.35;;;;;;;;;;5054990;28;20239;-63
2023/01/16 13:29:56;;;;;;;1.20;1.20;;;;;;;;;;5049260;28;20201;-64
2023/01/16 13:32:28;;;;;;;1.45;1.35;;;;;;;;;;5055149;28;20253;-65
2023/01/16 13:34:59;;;;;;;1.55;1.50;;;;;;;;;;5054256;28;20675;-66
2023/01/16 13:37:48;;;;;;;2.20;2.00;;;;;;;;;;5054309;28;20181;-65
2023/01/16 13:40:24;;;;;;;1.17;1.17;;;;;;;;;;5046777;28;20200;-66
2023/01/16 13:42:54;;;;;;;1.80;1.70;;;;;;;;;;5046021;28;20247;-67
2023/01/16 13:45:47;;;;;;;1.20;1.20;;;;;;;;;;5049082;28;20204;-65
2023/01/16 13:48:17;;;;;;;2.15;1.58;;;;;;;;;;5044621;28;20205;-64
2023/01/16 13:50:48;;;;;;;1.40;1.40;;;;;;;;;;5051295;28;20207;-64
2023/01/16 13:53:17;;;;;;;1.40;1.30;;;;;;;;;;5034453;28;20715;-64
2023/01/16 13:55:46;;;;;;;1.83;1.70;;;;;;;;;;5045586;28;20203;-65
2023/01/16 13:58:17;;;;;;;1.83;1.73;;;;;;;;;;5046310;28;20644;-64
2023/01/16 14:00:45;;;;;;;1.52;1.42;;;;;;;;;;5049414;28;20196;-63
2023/01/16 14:03:22;;;;;;;1.65;1.48;;;;;;;;;;5034122;28;20206;-64
2023/01/16 14:05:54;;;;;;;1.40;1.40;;;;;;;;;;5041513;28;20212;-64
2023/01/16 14:11:29;;;;;;;1.73;1.40;;;;;;;;;;5053720;28;20200;-65
2023/01/16 14:14:16;;;;;;;1.60;1.50;;;;;;;;;;5053907;28;20207;-64
2023/01/16 14:16:43;;;;;;;1.60;1.50;;;;;;;;;;5046649;28;20241;-64
2023/01/16 14:19:24;;;;;;;1.20;1.20;;;;;;;;;;5033991;28;20201;-64
2023/01/16 14:24:00;;;;;;;2.17;1.10;;;;;;;;;;5033718;28;20189;-64
2023/01/16 14:24:52;;;;;;;1.45;1.20;;;;;;;;;;5039568;28;20235;-64
2023/01/16 14:27:23;;;;;;;1.52;1.42;;;;;;;;;;5052332;28;20227;-64
2023/01/16 14:29:54;;;;;;;4.53;1.25;;;;;;;;;;5053187;28;20235;-65
2023/01/16 14:32:26;;;;;;;2.47;1.25;;;;;;;;;;5050145;28;20193;-64
2023/01/16 14:34:55;;;;;;;1.20;1.20;;;;;;;;;;5033868;28;20578;-64
2023/01/16 14:37:26;;;;;;;1.20;1.10;;;;;;;;;;5033871;28;20197;-64
2023/01/16 14:39:56;;;;;;;5.93;1.50;;;;;;;;;;5034574;28;20560;-65
2023/01/16 14:56:41;;;;;;;2.45;1.00;;;;;;;;;;5043761;28;20208;-64
2023/01/16 14:59:14;;;;;;;0.80;0.80;;;;;;;;;;5032968;28;20197;-64
2023/01/16 15:04:39;;;;;;;1.98;0.70;;;;;;;;;;5051194;28;20207;-62
2023/01/16 15:07:08;;;;;;;1.08;0.80;;;;;;;;;;5052759;28;20212;-63
2023/01/16 15:09:39;;;;;;;0.60;0.60;;;;;;;;;;5041410;28;20658;-64
2023/01/16 15:12:11;;;;;;;1.00;1.00;;;;;;;;;;5045212;28;20188;-63
2023/01/16 15:14:52;;;;;;;2.00;0.70;;;;;;;;;;5052604;28;20554;-65
2023/01/16 15:23:03;;;;;;;0.50;0.50;;;;;;;;;;5036595;28;20620;-65
2023/01/16 15:25:40;;;;;;;1.10;0.85;;;;;;;;;;5033943;28;20201;-63
2023/01/16 15:28:12;;;;;;;0.70;0.70;;;;;;;;;;5049519;28;20211;-63
2023/01/16 15:30:44;;;;;;;0.80;0.70;;;;;;;;;;5038697;28;20699;-62
2023/01/16 15:36:16;;;;;;;0.80;0.70;;;;;;;;;;5036975;28;20256;-63
2023/01/16 15:38:46;;;;;;;6.38;5.18;;;;;;;;;;5042697;28;20656;-63
2023/01/16 15:41:14;;;;;;;0.80;0.80;;;;;;;;;;5052293;28;20277;-63
2023/01/16 15:46:33;;;;;;;7.45;5.60;;;;;;;;;;5047783;28;20223;-64
2023/01/16 15:49:05;;;;;;;0.70;0.60;;;;;;;;;;5053017;28;20199;-63
2023/01/16 15:51:33;;;;;;;2.75;2.35;;;;;;;;;;5040831;28;20193;-62
2023/01/16 15:54:02;;;;;;;1.48;0.70;;;;;;;;;;5032661;28;20205;-63
2023/01/16 15:56:35;;;;;;;0.70;0.70;;;;;;;;;;5049814;28;20204;-63
2023/01/16 15:59:03;;;;;;;1.17;1.10;;;;;;;;;;5049292;28;20684;-63
2023/01/16 16:01:35;;;;;;;0.60;0.60;;;;;;;;;;5047633;28;20205;-63
2023/01/16 16:04:05;;;;;;;1.75;1.65;;;;;;;;;;5031459;28;20190;-62
2023/01/16 16:06:38;;;;;;;0.70;0.70;;;;;;;;;;5045393;28;20205;-62
2023/01/16 16:09:06;;;;;;;1.40;1.30;;;;;;;;;;5051802;28;20199;-62
2023/01/16 16:11:52;;;;;;;4.13;2.65;;;;;;;;;;5051222;28;20532;-63
2023/01/16 16:20:24;;;;;;;1.05;0.98;;;;;;;;;;5030842;28;20227;-64
2023/01/16 16:22:52;;;;;;;0.75;0.60;;;;;;;;;;5045445;28;20230;-62
2023/01/16 16:25:24;;;;;;;2.72;1.70;;;;;;;;;;5046010;28;20208;-63
2023/01/16 16:27:52;;;;;;;1.80;1.20;;;;;;;;;;5052536;28;20223;-63
2023/01/16 16:30:24;;;;;;;1.92;1.25;;;;;;;;;;5051720;28;20201;-62
2023/01/16 16:32:54;;;;;;;9.10;5.32;;;;;;;;;;5046451;28;20212;-63
2023/01/16 16:35:27;;;;;;;2.00;1.80;;;;;;;;;;5036510;28;20221;-63
2023/01/16 16:37:56;;;;;;;6.32;3.50;;;;;;;;;;5035194;28;20189;-61
2023/01/16 16:40:24;;;;;;;1.60;1.50;;;;;;;;;;5036302;28;20201;-64
2023/01/16 16:42:54;;;;;;;2.92;2.65;;;;;;;;;;5035188;28;20664;-63